Terminal Aerodrome Forecast
Issued by NWS Buffalo, NY

Home | Current Version | Previous Version | Text Only | Print | Product List | Glossary On
Versions: 1 2 3 4 5 6 7 8 9 10 11 12 13 14 15 16 17 18 19 20 21 22 23 24 25 26
000
FTUS41 KBUF 281512 AAA
TAFART
TAF AMD
KART 281512Z 2815/2912 24009KT P6SM OVC025
     FM281700 25011KT P6SM SCT030
     FM282200 24007KT P6SM FEW250
     FM290000 VRB03KT P6SM FEW250=

USA.gov is the U.S. government's official web portal to all federal, state and local government web resources and services.